createdAt,value
2022-08-17T00:00:42.724Z,99687.67
2022-08-17T00:05:53.766Z,99688.88
2022-08-17T00:10:55.798Z,99683.54
2022-08-17T00:16:01.310Z,99677.92
2022-08-17T00:21:04.664Z,99679.01
2022-08-17T00:26:12.502Z,99679.70
2022-08-17T00:31:15.668Z,99676.08
2022-08-17T00:36:17.331Z,99674.89
2022-08-17T00:41:22.335Z,99674.45
2022-08-17T00:46:36.295Z,99684.15
2022-08-17T00:51:58.318Z,99686.30
2022-08-17T00:57:21.185Z,99689.35
2022-08-17T01:02:22.781Z,99694.99
2022-08-17T01:07:26.427Z,99692.65
2022-08-17T01:12:28.538Z,99689.14
2022-08-17T01:17:29.702Z,99696.42
2022-08-17T01:22:31.534Z,99706.34
2022-08-17T01:27:34.506Z,99709.84
2022-08-17T01:32:37.297Z,99702.81
2022-08-17T01:37:41.747Z,99706.83
2022-08-17T01:42:51.320Z,99705.05
2022-08-17T01:47:53.654Z,99712.05
2022-08-17T01:52:59.447Z,99717.61
2022-08-17T01:58:00.654Z,99714.21
2022-08-17T02:03:04.695Z,99713.53
2022-08-17T02:08:06.588Z,99709.73
2022-08-17T02:13:07.954Z,99707.62
2022-08-17T02:18:09.884Z,99703.34
2022-08-17T02:23:12.283Z,99704.05
2022-08-17T02:28:14.639Z,99704.63
2022-08-17T02:33:15.800Z,99699.23
2022-08-17T02:38:16.985Z,99695.58
2022-08-17T02:43:18.087Z,99689.64
2022-08-17T02:48:29.728Z,99694.73
2022-08-17T02:53:36.200Z,99698.20
2022-08-17T02:58:37.702Z,99694.84
2022-08-17T03:03:39.278Z,99690.41
2022-08-17T03:08:40.377Z,99687.98
2022-08-17T03:13:41.452Z,99689.94
2022-08-17T03:18:42.667Z,99695.21
2022-08-17T03:23:43.756Z,99694.23
2022-08-17T03:28:45.669Z,99700.28
2022-08-17T03:33:47.121Z,99705.05
2022-08-17T03:38:48.327Z,99703.09
2022-08-17T03:43:52.188Z,99703.28
2022-08-17T03:49:12.614Z,99701.38
2022-08-17T03:54:31.782Z,99702.59
2022-08-17T03:59:34.152Z,99705.98
2022-08-17T04:04:36.892Z,99711.70
2022-08-17T04:09:38.025Z,99716.17
2022-08-17T04:14:53.464Z,99717.50
2022-08-17T04:19:56.150Z,99723.48
2022-08-17T04:24:57.726Z,99725.39
2022-08-17T04:30:01.017Z,99723.80
2022-08-17T04:35:02.216Z,99730.42
2022-08-17T04:40:22.349Z,99726.95
2022-08-17T04:45:24.195Z,99724.50
2022-08-17T04:50:25.420Z,99731.15
2022-08-17T04:55:26.659Z,99731.66
2022-08-17T05:00:27.762Z,99733.60
2022-08-17T05:05:36.441Z,99733.04
2022-08-17T05:10:38.196Z,99732.40
2022-08-17T05:15:49.367Z,99741.17
2022-08-17T05:20:51.225Z,99742.42
2022-08-17T05:25:55.581Z,99751.45
2022-08-17T05:30:59.511Z,99747.84
2022-08-17T05:36:03.128Z,99749.11
2022-08-17T05:41:07.076Z,99753.46
2022-08-17T05:46:33.091Z,99753.72
2022-08-17T05:51:46.856Z,99765.32
2022-08-17T05:57:14.123Z,99768.74
2022-08-17T06:02:21.777Z,99769.67
2022-08-17T06:07:47.162Z,99777.52
2022-08-17T06:13:07.100Z,99777.46
2022-08-17T06:18:10.856Z,99779.27
2022-08-17T06:23:23.948Z,99786.02
2022-08-17T06:28:34.598Z,99785.73
2022-08-17T06:33:38.635Z,99787.00
2022-08-17T06:38:58.538Z,99794.81
2022-08-17T06:44:12.860Z,99794.89
2022-08-17T06:49:55.208Z,99795.23
2022-08-17T06:55:05.791Z,99799.49
2022-08-17T07:00:18.736Z,99802.44
2022-08-17T07:05:24.192Z,99804.76
2022-08-17T07:10:27.450Z,99802.52
2022-08-17T07:15:42.159Z,99802.48
2022-08-17T07:20:50.504Z,99800.13
2022-08-17T07:25:52.058Z,99800.89
2022-08-17T07:30:54.241Z,99797.80
2022-08-17T07:35:57.339Z,99797.70
2022-08-17T07:41:07.702Z,99799.30
2022-08-17T07:46:44.513Z,99801.64
2022-08-17T07:51:49.678Z,99802.23
2022-08-17T07:57:09.804Z,99799.57
2022-08-17T08:02:26.476Z,99800.41
2022-08-17T08:07:48.163Z,99799.85
2022-08-17T08:13:08.251Z,99804.28
2022-08-17T08:18:39.666Z,99794.29
2022-08-17T08:23:59.337Z,99793.27
2022-08-17T08:29:22.331Z,99788.72
2022-08-17T08:35:01.525Z,99790.59
2022-08-17T08:40:26.747Z,99790.11
2022-08-17T08:45:59.329Z,99783.98
2022-08-17T08:51:06.615Z,99783.74
2022-08-17T08:57:11.592Z,99779.39
2022-08-17T09:02:19.515Z,99780.33
2022-08-17T09:07:50.177Z,99777.20
2022-08-17T09:13:14.610Z,99771.30
2022-08-17T09:19:02.303Z,99783.77
2022-08-17T09:24:13.341Z,99777.21
2022-08-17T09:29:17.009Z,99775.38
2022-08-17T09:34:31.960Z,99773.20
2022-08-17T09:40:01.242Z,99768.83
2022-08-17T09:45:24.168Z,99769.48
2022-08-17T09:50:55.481Z,99775.52
2022-08-17T09:56:25.288Z,99773.52
2022-08-17T10:01:37.354Z,99775.55
2022-08-17T10:06:52.084Z,99777.16
2022-08-17T10:12:23.562Z,99777.55
2022-08-17T10:18:08.931Z,99775.23
2022-08-17T10:23:48.973Z,99774.23
2022-08-17T10:29:05.869Z,99772.77
2022-08-17T10:34:44.062Z,99772.83
2022-08-17T10:40:01.751Z,99770.10
2022-08-17T10:45:25.600Z,99773.71
2022-08-17T10:51:06.850Z,99770.13
2022-08-17T10:56:10.869Z,99766.63
2022-08-17T11:01:12.769Z,99763.27
2022-08-17T11:06:23.668Z,99767.67
2022-08-17T11:11:45.050Z,99763.32
2022-08-17T11:17:04.738Z,99762.84
2022-08-17T11:22:33.804Z,99764.48
2022-08-17T11:27:35.922Z,99754.44
2022-08-17T11:32:54.641Z,99755.53
2022-08-17T11:38:16.705Z,99757.31
2022-08-17T11:43:48.362Z,99756.34
2022-08-17T11:49:10.987Z,99758.48
2022-08-17T11:54:34.628Z,99749.76
2022-08-17T11:59:35.914Z,99753.40
2022-08-17T12:04:37.165Z,99753.02
2022-08-17T12:09:47.216Z,99756.34
2022-08-17T12:15:11.026Z,99752.95
2022-08-17T12:20:32.144Z,99749.45
2022-08-17T12:25:37.064Z,99745.27
2022-08-17T12:30:38.304Z,99752.39
2022-08-17T12:35:39.523Z,99754.92
2022-08-17T12:40:54.088Z,99756.44
2022-08-17T12:46:00.690Z,99765.83
2022-08-17T12:51:06.884Z,99764.27
2022-08-17T12:56:11.205Z,99769.79
2022-08-17T13:01:16.882Z,99774.70
2022-08-17T13:06:36.918Z,99770.52
2022-08-17T13:11:50.029Z,99765.15
2022-08-17T13:16:59.632Z,99761.35
2022-08-17T13:22:01.687Z,99763.17
2022-08-17T13:27:11.560Z,99761.21
2022-08-17T13:32:19.989Z,99756.17
2022-08-17T13:37:30.009Z,99757.44
2022-08-17T13:42:34.266Z,99751.09
2022-08-17T13:48:15.643Z,99752.09
2022-08-17T13:53:35.550Z,99757.56
2022-08-17T13:58:51.425Z,99754.50
2022-08-17T14:03:52.627Z,99750.61
2022-08-17T14:08:55.114Z,99743.42
2022-08-17T14:13:56.228Z,99733.85
2022-08-17T14:18:57.965Z,99736.59
2022-08-17T14:23:59.143Z,99731.92
2022-08-17T14:29:00.988Z,99739.33
2022-08-17T14:34:02.359Z,99745.48
2022-08-17T14:39:06.101Z,99744.91
2022-08-17T14:44:11.667Z,99748.48
2022-08-17T14:49:14.819Z,99741.08
2022-08-17T14:54:34.326Z,99745.58
2022-08-17T14:59:35.714Z,99752.30
2022-08-17T15:04:39.789Z,99746.38
2022-08-17T15:09:43.601Z,99743.33
2022-08-17T15:14:45.907Z,99746.14
2022-08-17T15:19:47.070Z,99752.48
2022-08-17T15:24:48.553Z,99744.66
2022-08-17T15:29:50.214Z,99742.25
2022-08-17T15:34:53.802Z,99742.85
2022-08-17T15:39:55.247Z,99737.68
2022-08-17T15:44:56.522Z,99740.54
2022-08-17T15:50:00.157Z,99738.20
2022-08-17T15:55:02.975Z,99741.30
2022-08-17T16:00:07.123Z,99745.72
2022-08-17T16:05:11.837Z,99745.70
2022-08-17T16:10:19.014Z,99747.17
2022-08-17T16:15:20.696Z,99744.09
2022-08-17T16:20:21.864Z,99749.52
2022-08-17T16:25:38.807Z,99755.36
2022-08-17T16:30:49.012Z,99755.31
2022-08-17T16:35:50.133Z,99762.56
2022-08-17T16:40:51.265Z,99758.40
2022-08-17T16:45:52.430Z,99762.87
2022-08-17T16:51:02.005Z,99766.13
2022-08-17T16:56:06.630Z,99760.86
2022-08-17T17:01:07.821Z,99763.77
2022-08-17T17:06:14.982Z,99768.63
2022-08-17T17:11:25.050Z,99771.77
2022-08-17T17:16:44.999Z,99778.35
2022-08-17T17:22:08.354Z,99781.16
2022-08-17T17:27:47.331Z,99783.88
2022-08-17T17:32:54.573Z,99780.05
2022-08-17T17:37:56.610Z,99788.29
2022-08-17T17:43:09.442Z,99791.16
2022-08-17T17:48:21.150Z,99796.34
2022-08-17T17:53:43.366Z,99801.62
2022-08-17T17:58:52.599Z,99807.08
2022-08-17T18:04:31.355Z,99811.55
2022-08-17T18:10:19.445Z,99813.23
2022-08-17T18:15:51.533Z,99821.11
2022-08-17T18:21:04.317Z,99824.88
2022-08-17T18:26:05.905Z,99824.21
2022-08-17T18:31:25.785Z,99829.98
2022-08-17T18:36:33.001Z,99834.27
2022-08-17T18:41:43.475Z,99841.02
2022-08-17T18:46:44.629Z,99837.55
2022-08-17T18:51:45.786Z,99835.45
2022-08-17T18:57:06.842Z,99845.90
2022-08-17T19:02:20.738Z,99851.15
2022-08-17T19:07:38.575Z,99849.89
2022-08-17T19:13:12.172Z,99856.75
2022-08-17T19:18:23.348Z,99866.54
2022-08-17T19:23:31.914Z,99871.11
2022-08-17T19:28:44.849Z,99867.59
2022-08-17T19:33:50.293Z,99863.86
2022-08-17T19:39:16.998Z,99870.90
2022-08-17T19:44:39.439Z,99876.70
2022-08-17T19:50:25.808Z,99884.70
2022-08-17T19:55:48.508Z,99892.23
2022-08-17T20:00:51.527Z,99901.98
2022-08-17T20:06:14.096Z,99918.48
2022-08-17T20:11:24.004Z,99921.22
2022-08-17T20:16:25.322Z,99925.77
2022-08-17T20:21:43.961Z,99926.23
2022-08-17T20:26:58.669Z,99917.52
2022-08-17T20:32:00.137Z,99920.82
2022-08-17T20:37:13.685Z,99928.84
2022-08-17T20:42:14.690Z,99923.59
2022-08-17T20:47:36.858Z,99925.00
2022-08-17T20:52:48.521Z,99924.69
2022-08-17T20:57:51.053Z,99927.34
2022-08-17T21:03:21.226Z,99929.89
2022-08-17T21:08:35.376Z,99927.34
2022-08-17T21:13:36.403Z,99931.05
2022-08-17T21:19:16.881Z,99930.32
2022-08-17T21:24:55.847Z,99933.41
2022-08-17T21:30:34.797Z,99937.95
2022-08-17T21:36:13.426Z,99944.42
2022-08-17T21:41:43.245Z,99930.27
2022-08-17T21:46:48.613Z,99940.14
2022-08-17T21:51:54.309Z,99939.67
2022-08-17T21:56:55.716Z,99928.61
2022-08-17T22:01:58.897Z,99925.77
2022-08-17T22:07:03.599Z,99921.10
2022-08-17T22:12:15.678Z,99921.48
2022-08-17T22:17:22.915Z,99918.27
2022-08-17T22:23:01.687Z,99909.62
2022-08-17T22:28:04.533Z,99896.36
2022-08-17T22:33:27.156Z,99895.59
2022-08-17T22:38:30.757Z,99892.52
2022-08-17T22:43:37.400Z,99896.27
2022-08-17T22:48:47.896Z,99901.51
2022-08-17T22:54:08.981Z,99905.30
2022-08-17T22:59:29.512Z,99914.48
2022-08-17T23:04:32.692Z,99909.29
2022-08-17T23:09:35.247Z,99912.58
2022-08-17T23:14:41.638Z,99914.03
2022-08-17T23:19:44.330Z,99907.65
2022-08-17T23:24:49.550Z,99906.08
2022-08-17T23:29:50.701Z,99904.66
2022-08-17T23:34:51.794Z,99905.48
2022-08-17T23:39:52.990Z,99912.60
2022-08-17T23:44:55.099Z,99911.48
2022-08-17T23:49:56.412Z,99917.50
2022-08-17T23:55:04.910Z,99916.42
